Time;durP1;ratioP1;P1;durP2;ratioP2;P2;SDS_P1;SDS_P2;PMS_P1;PMS_P2;Temp;Humidity;BMP_temperature;BMP_pressure;BME280_temperature;BME280_humidity;BME280_pressure;Samples;Min_cycle;Max_cycle;Signal;HPM_P1;HPM_P2
2023/02/22 00:02:23;;;;;;;0.50;0.40;;;;;;;-128.00;-1.00;-1.00;104910;1260;1004634;-53
2023/02/22 00:04:53;;;;;;;0.60;0.40;;;;;;;-128.00;-1.00;-1.00;104770;1261;1048839;-54
2023/02/22 00:07:22;;;;;;;0.70;0.50;;;;;;;-128.00;-1.00;-1.00;100664;1260;1006666;-53
2023/02/22 00:09:51;;;;;;;0.70;0.40;;;;;;;-128.00;-1.00;-1.00;101063;1263;1060191;-52
2023/02/22 00:12:19;;;;;;;0.90;0.50;;;;;;;-128.00;-1.00;-1.00;101542;1256;1004125;-53
2023/02/22 00:14:47;;;;;;;0.70;0.50;;;;;;;-128.00;-1.00;-1.00;101040;1260;1005211;-52
2023/02/22 00:17:16;;;;;;;0.90;0.60;;;;;;;-128.00;-1.00;-1.00;101287;1258;1047743;-53
2023/02/22 00:19:44;;;;;;;1.10;0.80;;;;;;;-128.00;-1.00;-1.00;101550;1257;1004607;-52
2023/02/22 00:22:12;;;;;;;1.30;0.90;;;;;;;-128.00;-1.00;-1.00;101195;1261;1004904;-53
2023/02/22 00:24:40;;;;;;;1.80;0.80;;;;;;;-128.00;-1.00;-1.00;101366;1257;1005393;-53
2023/02/22 00:27:09;;;;;;;1.10;0.80;;;;;;;-128.00;-1.00;-1.00;101345;1260;1061486;-53
2023/02/22 00:29:43;;;;;;;1.20;0.70;;;;;;;-128.00;-1.00;-1.00;101103;1257;1048620;-53
2023/02/22 00:32:12;;;;;;;1.10;0.70;;;;;;;-128.00;-1.00;-1.00;101088;1263;1048107;-51
2023/02/22 00:34:40;;;;;;;3.00;1.00;;;;;;;-128.00;-1.00;-1.00;101815;1260;1003513;-53
2023/02/22 00:37:09;;;;;;;1.10;0.80;;;;;;;-128.00;-1.00;-1.00;101338;1267;1055787;-50
2023/02/22 00:39:38;;;;;;;1.80;1.20;;;;;;;-128.00;-1.00;-1.00;101300;1260;1061078;-50
2023/02/22 00:42:06;;;;;;;3.40;1.50;;;;;;;-128.00;-1.00;-1.00;102577;1258;1004608;-48
2023/02/22 00:44:34;;;;;;;1.80;1.40;;;;;;;-128.00;-1.00;-1.00;101564;1257;1005284;-49
2023/02/22 00:47:03;;;;;;;3.10;1.00;;;;;;;-128.00;-1.00;-1.00;101688;1260;1004740;-49
2023/02/22 00:49:33;;;;;;;1.40;0.90;;;;;;;-128.00;-1.00;-1.00;101546;1261;1054069;-53
2023/02/22 00:52:01;;;;;;;1.60;0.90;;;;;;;-128.00;-1.00;-1.00;101516;1256;1059922;-49
2023/02/22 00:54:29;;;;;;;1.80;0.90;;;;;;;-128.00;-1.00;-1.00;101461;1257;1004857;-52
2023/02/22 00:56:58;;;;;;;1.20;0.90;;;;;;;-128.00;-1.00;-1.00;101958;1258;1004945;-49
2023/02/22 00:59:29;;;;;;;1.00;0.60;;;;;;;-128.00;-1.00;-1.00;101467;1257;1059890;-51
2023/02/22 01:01:58;;;;;;;1.70;0.70;;;;;;;-128.00;-1.00;-1.00;101620;1257;1053859;-47
2023/02/22 01:04:27;;;;;;;1.20;0.60;;;;;;;-128.00;-1.00;-1.00;101744;1257;1059625;-48
2023/02/22 01:06:56;;;;;;;0.80;0.50;;;;;;;-128.00;-1.00;-1.00;101926;1256;1047727;-53
2023/02/22 01:09:27;;;;;;;1.00;0.50;;;;;;;-128.00;-1.00;-1.00;102633;1257;1046608;-53
2023/02/22 01:11:55;;;;;;;2.40;0.50;;;;;;;-128.00;-1.00;-1.00;101870;1259;1004523;-51
2023/02/22 01:14:25;;;;;;;1.90;0.50;;;;;;;-128.00;-1.00;-1.00;102433;1256;1004771;-50
2023/02/22 01:16:54;;;;;;;0.70;0.50;;;;;;;-128.00;-1.00;-1.00;102978;1256;1059736;-48
2023/02/22 01:19:22;;;;;;;1.30;0.50;;;;;;;-128.00;-1.00;-1.00;101819;1257;1048043;-50
2023/02/22 01:21:50;;;;;;;2.30;0.50;;;;;;;-128.00;-1.00;-1.00;101581;1257;1005506;-50
2023/02/22 01:24:18;;;;;;;0.80;0.60;;;;;;;-128.00;-1.00;-1.00;101557;1259;1004243;-52
2023/02/22 01:26:50;;;;;;;0.80;0.60;;;;;;;-128.00;-1.00;-1.00;101519;1256;1004568;-49
2023/02/22 01:29:19;;;;;;;0.80;0.60;;;;;;;-128.00;-1.00;-1.00;101450;1260;1061852;-50
2023/02/22 01:31:54;;;;;;;0.90;0.60;;;;;;;-128.00;-1.00;-1.00;101548;1260;1046068;-49
2023/02/22 01:34:23;;;;;;;1.20;0.60;;;;;;;-128.00;-1.00;-1.00;101519;1257;1047288;-50
2023/02/22 01:36:52;;;;;;;0.80;0.60;;;;;;;-128.00;-1.00;-1.00;101562;1257;1063816;-45
2023/02/22 01:39:20;;;;;;;1.40;0.60;;;;;;;-128.00;-1.00;-1.00;101656;1256;1004644;-47
2023/02/22 01:41:49;;;;;;;0.80;0.50;;;;;;;-128.00;-1.00;-1.00;101443;1258;1060084;-49
2023/02/22 01:44:30;;;;;;;0.70;0.50;;;;;;;-128.00;-1.00;-1.00;101528;1256;1004919;-50
2023/02/22 01:47:00;;;;;;;0.90;0.80;;;;;;;-128.00;-1.00;-1.00;101774;1260;1046856;-49
2023/02/22 01:49:33;;;;;;;0.70;0.50;;;;;;;-128.00;-1.00;-1.00;102024;1257;1060955;-50
2023/02/22 01:52:02;;;;;;;1.60;0.60;;;;;;;-128.00;-1.00;-1.00;101524;1256;1057326;-51
2023/02/22 01:54:34;;;;;;;0.80;0.60;;;;;;;-128.00;-1.00;-1.00;101200;1258;1060972;-49
2023/02/22 01:57:06;;;;;;;1.00;0.70;;;;;;;-128.00;-1.00;-1.00;101918;1261;1047654;-48
2023/02/22 01:59:36;;;;;;;1.00;0.60;;;;;;;-128.00;-1.00;-1.00;101588;1257;1047274;-49
2023/02/22 02:02:05;;;;;;;1.30;0.80;;;;;;;-128.00;-1.00;-1.00;101653;1258;1063238;-50
2023/02/22 02:04:33;;;;;;;1.30;0.60;;;;;;;-128.00;-1.00;-1.00;102472;1257;1004129;-49
2023/02/22 02:07:05;;;;;;;0.90;0.70;;;;;;;-128.00;-1.00;-1.00;101270;1258;1059211;-47
2023/02/22 02:09:55;;;;;;;2.00;0.70;;;;;;;-128.00;-1.00;-1.00;101531;1256;1049146;-48
2023/02/22 02:12:23;;;;;;;2.10;0.60;;;;;;;-128.00;-1.00;-1.00;101860;1256;1046608;-48
2023/02/22 02:14:52;;;;;;;0.80;0.60;;;;;;;-128.00;-1.00;-1.00;101601;1257;1063848;-49
2023/02/22 02:17:21;;;;;;;1.00;0.60;;;;;;;-128.00;-1.00;-1.00;101531;1257;1004712;-47
2023/02/22 02:20:16;;;;;;;1.00;0.50;;;;;;;-128.00;-1.00;-1.00;101443;1257;1005335;-49
2023/02/22 02:23:05;;;;;;;1.00;0.60;;;;;;;-128.00;-1.00;-1.00;101464;1256;1045854;-49
2023/02/22 02:25:54;;;;;;;0.70;0.50;;;;;;;-128.00;-1.00;-1.00;101857;1257;1047753;-48
2023/02/22 02:28:41;;;;;;;0.70;0.50;;;;;;;-128.00;-1.00;-1.00;101562;1260;1060767;-50
2023/02/22 02:31:30;;;;;;;2.70;0.60;;;;;;;-128.00;-1.00;-1.00;101623;1257;1054926;-49
2023/02/22 02:34:37;;;;;;;0.70;0.50;;;;;;;-128.00;-1.00;-1.00;101455;1257;1061028;-50
2023/02/22 02:37:18;;;;;;;1.20;0.50;;;;;;;-128.00;-1.00;-1.00;101924;1257;1046309;-50
2023/02/22 02:39:54;;;;;;;0.90;0.40;;;;;;;-128.00;-1.00;-1.00;101503;1257;1046305;-47
2023/02/22 02:42:24;;;;;;;1.00;0.50;;;;;;;-128.00;-1.00;-1.00;101768;1256;1060320;-49
2023/02/22 02:45:01;;;;;;;0.90;0.50;;;;;;;-128.00;-1.00;-1.00;101527;1254;1053715;-47
2023/02/22 02:47:31;;;;;;;0.80;0.60;;;;;;;-128.00;-1.00;-1.00;101580;1254;1060338;-48
2023/02/22 02:50:02;;;;;;;1.20;0.60;;;;;;;-128.00;-1.00;-1.00;101799;1254;1046691;-49
2023/02/22 02:52:30;;;;;;;1.00;0.60;;;;;;;-128.00;-1.00;-1.00;101485;1254;1047367;-48
2023/02/22 02:54:59;;;;;;;0.80;0.60;;;;;;;-128.00;-1.00;-1.00;101790;1256;1004436;-50
2023/02/22 02:57:26;;;;;;;0.70;0.40;;;;;;;-128.00;-1.00;-1.00;101522;1254;1004784;-46
2023/02/22 02:59:58;;;;;;;0.90;0.60;;;;;;;-128.00;-1.00;-1.00;101774;1254;1059199;-49
2023/02/22 03:02:40;;;;;;;1.10;0.80;;;;;;;-128.00;-1.00;-1.00;101555;1254;1004552;-50
2023/02/22 03:05:46;;;;;;;1.10;0.70;;;;;;;-128.00;-1.00;-1.00;101505;1254;1047645;-47
2023/02/22 03:08:16;;;;;;;2.30;0.70;;;;;;;-128.00;-1.00;-1.00;101926;1257;1063579;-46
2023/02/22 03:11:02;;;;;;;0.90;0.60;;;;;;;-128.00;-1.00;-1.00;101548;1259;1057237;-45
2023/02/22 03:13:39;;;;;;;0.90;0.60;;;;;;;-128.00;-1.00;-1.00;101658;1253;1060046;-47
2023/02/22 03:16:19;;;;;;;1.00;0.60;;;;;;;-128.00;-1.00;-1.00;102006;1254;1048797;-45
2023/02/22 03:18:58;;;;;;;1.10;0.80;;;;;;;-128.00;-1.00;-1.00;101525;1254;1048111;-45
2023/02/22 03:21:46;;;;;;;1.30;0.50;;;;;;;-128.00;-1.00;-1.00;101927;1253;1060820;-45
2023/02/22 03:24:19;;;;;;;1.40;0.60;;;;;;;-128.00;-1.00;-1.00;101763;1256;1054260;-46
2023/02/22 03:26:55;;;;;;;1.70;0.80;;;;;;;-128.00;-1.00;-1.00;101902;1253;1058870;-47
2023/02/22 03:29:25;;;;;;;1.00;0.70;;;;;;;-128.00;-1.00;-1.00;101732;1253;1045858;-46
2023/02/22 03:32:00;;;;;;;1.00;0.80;;;;;;;-128.00;-1.00;-1.00;101616;1254;1046934;-46
2023/02/22 03:34:34;;;;;;;0.70;0.50;;;;;;;-128.00;-1.00;-1.00;101724;1259;1060418;-46
2023/02/22 03:37:07;;;;;;;1.00;0.70;;;;;;;-128.00;-1.00;-1.00;102045;1254;1054687;-45
2023/02/22 03:39:38;;;;;;;1.30;0.70;;;;;;;-128.00;-1.00;-1.00;101689;1256;1059508;-46
2023/02/22 03:42:13;;;;;;;1.80;0.70;;;;;;;-128.00;-1.00;-1.00;101874;1254;1004150;-47
2023/02/22 03:44:42;;;;;;;0.80;0.50;;;;;;;-128.00;-1.00;-1.00;101445;1253;1046745;-47
2023/02/22 03:47:17;;;;;;;0.80;0.60;;;;;;;-128.00;-1.00;-1.00;102649;1254;1060633;-46
2023/02/22 03:49:50;;;;;;;1.60;0.60;;;;;;;-128.00;-1.00;-1.00;101681;1254;1055376;-46
2023/02/22 03:52:18;;;;;;;1.50;0.60;;;;;;;-128.00;-1.00;-1.00;101483;1256;1058254;-46
2023/02/22 03:54:46;;;;;;;1.20;0.60;;;;;;;-128.00;-1.00;-1.00;101426;1254;1004667;-47
2023/02/22 03:57:18;;;;;;;1.00;0.70;;;;;;;-128.00;-1.00;-1.00;101591;1253;1004240;-46
2023/02/22 03:59:51;;;;;;;1.90;0.80;;;;;;;-128.00;-1.00;-1.00;101632;1256;1061241;-46
2023/02/22 04:02:22;;;;;;;0.80;0.60;;;;;;;-128.00;-1.00;-1.00;101716;1254;1057593;-46
2023/02/22 04:04:51;;;;;;;1.10;0.60;;;;;;;-128.00;-1.00;-1.00;102045;1256;1059515;-44
2023/02/22 04:07:19;;;;;;;1.80;0.70;;;;;;;-128.00;-1.00;-1.00;101735;1254;1005268;-45
2023/02/22 04:09:48;;;;;;;2.00;0.80;;;;;;;-128.00;-1.00;-1.00;101782;1254;1046618;-47
2023/02/22 04:12:16;;;;;;;1.00;0.60;;;;;;;-128.00;-1.00;-1.00;101634;1257;1063407;-44
2023/02/22 04:15:00;;;;;;;1.60;0.80;;;;;;;-128.00;-1.00;-1.00;101589;1254;1057856;-45
2023/02/22 04:17:28;;;;;;;1.10;0.70;;;;;;;-128.00;-1.00;-1.00;101648;1252;1058802;-46
2023/02/22 04:20:00;;;;;;;1.30;0.80;;;;;;;-128.00;-1.00;-1.00;101292;1253;1050346;-44
2023/02/22 04:22:35;;;;;;;1.30;0.80;;;;;;;-128.00;-1.00;-1.00;101703;1253;1046754;-45
2023/02/22 04:25:04;;;;;;;1.50;0.80;;;;;;;-128.00;-1.00;-1.00;101856;1254;1004639;-45
2023/02/22 04:27:33;;;;;;;0.90;0.60;;;;;;;-128.00;-1.00;-1.00;101612;1254;1054386;-45
2023/02/22 04:30:01;;;;;;;1.50;0.80;;;;;;;-128.00;-1.00;-1.00;101985;1254;1060179;-45
2023/02/22 04:32:31;;;;;;;1.80;0.80;;;;;;;-128.00;-1.00;-1.00;101631;1257;1046274;-44
2023/02/22 04:34:59;;;;;;;2.00;0.80;;;;;;;-128.00;-1.00;-1.00;102030;1254;1047553;-47
2023/02/22 04:37:33;;;;;;;2.00;1.10;;;;;;;-128.00;-1.00;-1.00;101761;1254;1061244;-45
2023/02/22 04:40:09;;;;;;;2.70;0.90;;;;;;;-128.00;-1.00;-1.00;102049;1256;1055148;-45
2023/02/22 04:42:37;;;;;;;1.90;1.00;;;;;;;-128.00;-1.00;-1.00;101474;1259;1061940;-44
2023/02/22 04:45:07;;;;;;;1.40;1.00;;;;;;;-128.00;-1.00;-1.00;101932;1255;1046006;-46
2023/02/22 04:47:35;;;;;;;2.80;0.70;;;;;;;-128.00;-1.00;-1.00;101822;1254;1047058;-45
2023/02/22 04:50:04;;;;;;;2.10;1.20;;;;;;;-128.00;-1.00;-1.00;101802;1254;1061166;-45
2023/02/22 04:52:33;;;;;;;1.60;0.90;;;;;;;-128.00;-1.00;-1.00;102039;1253;1055344;-47
2023/02/22 04:55:01;;;;;;;3.70;0.90;;;;;;;-128.00;-1.00;-1.00;101802;1253;1004966;-45
2023/02/22 04:57:30;;;;;;;2.90;1.20;;;;;;;-128.00;-1.00;-1.00;101943;1256;1048756;-46
2023/02/22 04:59:58;;;;;;;2.70;1.60;;;;;;;-128.00;-1.00;-1.00;101764;1256;1004795;-44
2023/02/22 05:02:26;;;;;;;4.20;1.00;;;;;;;-128.00;-1.00;-1.00;101531;1256;1004505;-47
2023/02/22 05:04:59;;;;;;;3.30;1.20;;;;;;;-128.00;-1.00;-1.00;101660;1254;1055194;-47
2023/02/22 05:07:27;;;;;;;2.60;1.50;;;;;;;-128.00;-1.00;-1.00;101765;1254;1003675;-45
2023/02/22 05:10:01;;;;;;;3.10;1.40;;;;;;;-128.00;-1.00;-1.00;101874;1254;1047323;-46
2023/02/22 05:12:29;;;;;;;3.40;1.40;;;;;;;-128.00;-1.00;-1.00;101668;1253;1046686;-44
2023/02/22 05:14:57;;;;;;;3.20;2.00;;;;;;;-128.00;-1.00;-1.00;101600;1256;1004535;-44
2023/02/22 05:17:25;;;;;;;4.40;1.60;;;;;;;-128.00;-1.00;-1.00;101710;1253;1004980;-46
2023/02/22 05:19:54;;;;;;;3.90;1.30;;;;;;;-128.00;-1.00;-1.00;101986;1253;1058553;-46
2023/02/22 05:22:23;;;;;;;4.50;1.30;;;;;;;-128.00;-1.00;-1.00;101686;1253;1004626;-46
2023/02/22 05:24:54;;;;;;;4.80;1.70;;;;;;;-128.00;-1.00;-1.00;101658;1256;1048326;-46
2023/02/22 05:27:22;;;;;;;3.70;1.80;;;;;;;-128.00;-1.00;-1.00;101594;1254;1061183;-46
2023/02/22 05:29:50;;;;;;;3.70;1.80;;;;;;;-128.00;-1.00;-1.00;102492;1254;1004050;-48
2023/02/22 05:32:18;;;;;;;2.50;1.70;;;;;;;-128.00;-1.00;-1.00;102369;1254;1004645;-46
2023/02/22 05:34:46;;;;;;;2.70;1.50;;;;;;;-128.00;-1.00;-1.00;101756;1257;1004225;-48
2023/02/22 05:37:14;;;;;;;2.90;1.60;;;;;;;-128.00;-1.00;-1.00;101824;1254;1004819;-48
2023/02/22 05:39:45;;;;;;;3.90;1.70;;;;;;;-128.00;-1.00;-1.00;101641;1256;1064070;-46
2023/02/22 05:42:13;;;;;;;2.80;2.00;;;;;;;-128.00;-1.00;-1.00;101563;1254;1056200;-44
2023/02/22 05:44:41;;;;;;;3.40;1.90;;;;;;;-128.00;-1.00;-1.00;101493;1254;1005800;-44
2023/02/22 05:47:09;;;;;;;4.50;2.20;;;;;;;-128.00;-1.00;-1.00;101746;1254;1004021;-44
2023/02/22 05:49:37;;;;;;;4.90;2.30;;;;;;;-128.00;-1.00;-1.00;101775;1254;1003931;-45
2023/02/22 05:52:05;;;;;;;4.20;2.10;;;;;;;-128.00;-1.00;-1.00;101887;1254;1003649;-46
2023/02/22 05:54:33;;;;;;;3.50;1.60;;;;;;;-128.00;-1.00;-1.00;101598;1254;1005037;-47
2023/02/22 05:57:02;;;;;;;5.40;1.70;;;;;;;-128.00;-1.00;-1.00;102055;1254;1059743;-47
2023/02/22 05:59:30;;;;;;;3.60;1.70;;;;;;;-128.00;-1.00;-1.00;101753;1254;1046093;-47
2023/02/22 06:01:58;;;;;;;3.60;2.00;;;;;;;-128.00;-1.00;-1.00;102226;1254;1004340;-44
2023/02/22 06:04:27;;;;;;;3.80;2.10;;;;;;;-128.00;-1.00;-1.00;101783;1256;1062173;-48
2023/02/22 06:06:55;;;;;;;3.70;1.90;;;;;;;-128.00;-1.00;-1.00;101507;1254;1005303;-45
2023/02/22 06:09:23;;;;;;;4.20;2.00;;;;;;;-128.00;-1.00;-1.00;101982;1254;1059895;-46
2023/02/22 06:11:51;;;;;;;4.50;2.30;;;;;;;-128.00;-1.00;-1.00;101837;1254;1004333;-45
2023/02/22 06:14:21;;;;;;;10.00;5.00;;;;;;;-128.00;-1.00;-1.00;101486;1253;1047718;-46
2023/02/22 06:16:53;;;;;;;8.70;4.50;;;;;;;-128.00;-1.00;-1.00;101502;1254;1005838;-46
2023/02/22 06:19:23;;;;;;;5.60;3.10;;;;;;;-128.00;-1.00;-1.00;101597;1254;1055366;-43
2023/02/22 06:21:56;;;;;;;7.10;2.80;;;;;;;-128.00;-1.00;-1.00;101528;1256;1059830;-47
2023/02/22 06:24:23;;;;;;;4.60;2.60;;;;;;;-128.00;-1.00;-1.00;101521;1253;1049969;-45
2023/02/22 06:26:55;;;;;;;5.50;2.80;;;;;;;-128.00;-1.00;-1.00;102155;1254;1004919;-46
2023/02/22 06:29:24;;;;;;;6.90;2.70;;;;;;;-128.00;-1.00;-1.00;102870;1256;1060526;-45
2023/02/22 06:31:57;;;;;;;8.90;4.10;;;;;;;-128.00;-1.00;-1.00;101563;1256;1055481;-47
2023/02/22 06:34:25;;;;;;;7.80;3.40;;;;;;;-128.00;-1.00;-1.00;104592;1254;1059350;-47
2023/02/22 06:36:54;;;;;;;4.40;2.40;;;;;;;-128.00;-1.00;-1.00;101700;1254;1050209;-47
2023/02/22 06:39:24;;;;;;;6.70;2.80;;;;;;;-128.00;-1.00;-1.00;101422;1256;1003944;-44
2023/02/22 06:41:56;;;;;;;6.40;2.90;;;;;;;-128.00;-1.00;-1.00;101416;1257;1060200;-44
2023/02/22 06:44:24;;;;;;;5.60;2.20;;;;;;;-128.00;-1.00;-1.00;101736;1254;1054528;-44
2023/02/22 06:46:52;;;;;;;2.80;1.90;;;;;;;-128.00;-1.00;-1.00;101770;1254;1005008;-48
2023/02/22 06:49:20;;;;;;;3.90;1.90;;;;;;;-128.00;-1.00;-1.00;101556;1254;1005116;-47
2023/02/22 06:51:48;;;;;;;5.80;2.50;;;;;;;-128.00;-1.00;-1.00;101357;1253;1004414;-46
2023/02/22 06:54:16;;;;;;;7.30;2.10;;;;;;;-128.00;-1.00;-1.00;101532;1253;1004452;-49
2023/02/22 06:56:44;;;;;;;3.80;2.00;;;;;;;-128.00;-1.00;-1.00;101530;1256;1003826;-47
2023/02/22 06:59:12;;;;;;;3.30;2.00;;;;;;;-128.00;-1.00;-1.00;101485;1254;1005114;-47
2023/02/22 07:01:41;;;;;;;6.90;2.50;;;;;;;-128.00;-1.00;-1.00;101876;1254;1004372;-49
2023/02/22 07:04:10;;;;;;;4.40;2.40;;;;;;;-128.00;-1.00;-1.00;101954;1254;1047259;-47
2023/02/22 07:06:46;;;;;;;4.70;2.60;;;;;;;-128.00;-1.00;-1.00;102503;1256;1062731;-45
2023/02/22 07:09:16;;;;;;;5.70;2.70;;;;;;;-128.00;-1.00;-1.00;101782;1257;1054987;-43
2023/02/22 07:11:44;;;;;;;8.50;3.50;;;;;;;-128.00;-1.00;-1.00;101692;1254;1059278;-43
2023/02/22 07:14:16;;;;;;;12.80;6.50;;;;;;;-128.00;-1.00;-1.00;101561;1254;1049179;-44
2023/02/22 07:16:44;;;;;;;9.90;5.10;;;;;;;-128.00;-1.00;-1.00;101680;1256;1047921;-48
2023/02/22 07:19:12;;;;;;;10.20;5.00;;;;;;;-128.00;-1.00;-1.00;101702;1256;1004110;-48
2023/02/22 07:21:39;;;;;;;8.10;4.80;;;;;;;-128.00;-1.00;-1.00;101860;1253;1004692;-47
2023/02/22 07:24:07;;;;;;;8.30;3.30;;;;;;;-128.00;-1.00;-1.00;101627;1256;1004575;-47
2023/02/22 07:26:39;;;;;;;5.70;3.20;;;;;;;-128.00;-1.00;-1.00;101806;1253;1005185;-45
2023/02/22 07:29:10;;;;;;;4.90;3.00;;;;;;;-128.00;-1.00;-1.00;101944;1254;1046160;-46
2023/02/22 07:31:38;;;;;;;9.40;4.30;;;;;;;-128.00;-1.00;-1.00;101901;1254;1061963;-46
2023/02/22 07:34:06;;;;;;;12.90;4.90;;;;;;;-128.00;-1.00;-1.00;101656;1254;1054727;-45
2023/02/22 07:36:35;;;;;;;11.60;5.10;;;;;;;-128.00;-1.00;-1.00;101510;1254;1005399;-44
2023/02/22 07:39:07;;;;;;;7.90;3.70;;;;;;;-128.00;-1.00;-1.00;101679;1254;1047253;-44
2023/02/22 07:41:36;;;;;;;5.20;2.80;;;;;;;-128.00;-1.00;-1.00;101948;1254;1047963;-44
2023/02/22 07:44:13;;;;;;;4.90;2.80;;;;;;;-128.00;-1.00;-1.00;101835;1257;1060833;-44
2023/02/22 07:46:41;;;;;;;9.70;3.80;;;;;;;-128.00;-1.00;-1.00;101411;1252;1005071;-46
2023/02/22 07:49:14;;;;;;;5.70;3.00;;;;;;;-128.00;-1.00;-1.00;101401;1253;1059075;-47
2023/02/22 07:51:43;;;;;;;5.40;2.80;;;;;;;-128.00;-1.00;-1.00;101443;1253;1049715;-47
2023/02/22 07:54:11;;;;;;;6.50;3.20;;;;;;;-128.00;-1.00;-1.00;101863;1254;1004665;-49
2023/02/22 07:56:48;;;;;;;6.00;2.90;;;;;;;-128.00;-1.00;-1.00;101554;1256;1004764;-44
2023/02/22 07:59:16;;;;;;;5.80;3.20;;;;;;;-128.00;-1.00;-1.00;101594;1256;1055228;-46
2023/02/22 08:01:44;;;;;;;6.80;4.30;;;;;;;-128.00;-1.00;-1.00;101903;1257;1060480;-49
2023/02/22 08:04:12;;;;;;;7.30;3.60;;;;;;;-128.00;-1.00;-1.00;101957;1254;1004747;-47
2023/02/22 08:06:45;;;;;;;6.20;3.00;;;;;;;-128.00;-1.00;-1.00;101509;1254;1046689;-48
2023/02/22 08:09:14;;;;;;;8.80;3.10;;;;;;;-128.00;-1.00;-1.00;101851;1256;1060643;-47
2023/02/22 08:11:42;;;;;;;8.00;5.10;;;;;;;-128.00;-1.00;-1.00;101920;1254;1003919;-48
2023/02/22 08:14:10;;;;;;;10.40;6.30;;;;;;;-128.00;-1.00;-1.00;101875;1254;1004259;-48
2023/02/22 08:16:38;;;;;;;7.60;4.20;;;;;;;-128.00;-1.00;-1.00;101628;1253;1004275;-47
2023/02/22 08:19:06;;;;;;;6.70;4.30;;;;;;;-128.00;-1.00;-1.00;101785;1254;1004870;-47
2023/02/22 08:21:34;;;;;;;8.50;4.30;;;;;;;-128.00;-1.00;-1.00;102269;1256;1060176;-48
2023/02/22 08:24:03;;;;;;;10.10;5.00;;;;;;;-128.00;-1.00;-1.00;101660;1254;1004860;-48
2023/02/22 08:26:31;;;;;;;10.20;5.00;;;;;;;-128.00;-1.00;-1.00;102389;1254;1059352;-47
2023/02/22 08:29:00;;;;;;;10.60;5.00;;;;;;;-128.00;-1.00;-1.00;101950;1254;1004769;-44
2023/02/22 08:31:28;;;;;;;8.90;4.30;;;;;;;-128.00;-1.00;-1.00;101727;1254;1004791;-46
2023/02/22 08:33:56;;;;;;;7.00;4.20;;;;;;;-128.00;-1.00;-1.00;101605;1256;1004451;-46
2023/02/22 08:36:24;;;;;;;6.10;3.20;;;;;;;-128.00;-1.00;-1.00;101641;1256;1004538;-48
2023/02/22 08:38:52;;;;;;;9.50;3.90;;;;;;;-128.00;-1.00;-1.00;101847;1254;1004946;-48
2023/02/22 08:41:20;;;;;;;7.20;4.00;;;;;;;-128.00;-1.00;-1.00;101749;1254;1004635;-48
2023/02/22 08:43:49;;;;;;;6.50;3.50;;;;;;;-128.00;-1.00;-1.00;101439;1254;1047671;-48
2023/02/22 08:46:17;;;;;;;5.00;3.90;;;;;;;-128.00;-1.00;-1.00;101581;1254;1004989;-49
2023/02/22 08:48:50;;;;;;;6.20;3.20;;;;;;;-128.00;-1.00;-1.00;101527;1254;1004781;-46
2023/02/22 08:51:18;;;;;;;10.60;3.80;;;;;;;-128.00;-1.00;-1.00;101435;1256;1059335;-45
2023/02/22 08:53:46;;;;;;;5.00;3.30;;;;;;;-128.00;-1.00;-1.00;101628;1254;1045493;-48
2023/02/22 08:56:15;;;;;;;5.80;4.00;;;;;;;-128.00;-1.00;-1.00;101616;1254;1047986;-45
2023/02/22 08:58:44;;;;;;;7.40;3.50;;;;;;;-128.00;-1.00;-1.00;101938;1253;1004819;-48
2023/02/22 09:01:16;;;;;;;4.70;3.30;;;;;;;-128.00;-1.00;-1.00;101812;1253;1054848;-45
2023/02/22 09:03:58;;;;;;;9.10;4.50;;;;;;;-128.00;-1.00;-1.00;101602;1257;1062001;-47
2023/02/22 09:06:29;;;;;;;6.50;3.90;;;;;;;-128.00;-1.00;-1.00;101951;1254;1047568;-46
2023/02/22 09:08:57;;;;;;;7.40;4.00;;;;;;;-128.00;-1.00;-1.00;101378;1256;1047121;-47
2023/02/22 09:11:25;;;;;;;5.40;3.10;;;;;;;-128.00;-1.00;-1.00;102035;1254;1005300;-48
2023/02/22 09:13:53;;;;;;;6.60;4.10;;;;;;;-128.00;-1.00;-1.00;102343;1254;1054608;-47
2023/02/22 09:16:22;;;;;;;6.40;3.70;;;;;;;-128.00;-1.00;-1.00;102184;1253;1061123;-47
2023/02/22 09:18:50;;;;;;;7.40;3.20;;;;;;;-128.00;-1.00;-1.00;101797;1256;1004659;-47
2023/02/22 09:21:18;;;;;;;5.00;3.40;;;;;;;-128.00;-1.00;-1.00;102432;1256;1004383;-47
2023/02/22 09:23:46;;;;;;;8.10;3.80;;;;;;;-128.00;-1.00;-1.00;101750;1256;1004489;-49
2023/02/22 09:26:14;;;;;;;8.20;3.20;;;;;;;-128.00;-1.00;-1.00;101806;1252;1003976;-48
2023/02/22 09:28:43;;;;;;;5.50;3.50;;;;;;;-128.00;-1.00;-1.00;101884;1254;1058441;-46
2023/02/22 09:31:12;;;;;;;5.40;3.70;;;;;;;-128.00;-1.00;-1.00;101780;1254;1046147;-49
2023/02/22 09:33:40;;;;;;;6.70;3.90;;;;;;;-128.00;-1.00;-1.00;101846;1254;1047141;-49
2023/02/22 09:36:08;;;;;;;5.60;3.80;;;;;;;-128.00;-1.00;-1.00;101652;1257;1005306;-48
2023/02/22 09:38:38;;;;;;;5.50;4.20;;;;;;;-128.00;-1.00;-1.00;101827;1256;1054518;-46
2023/02/22 09:41:35;;;;;;;5.20;4.10;;;;;;;-128.00;-1.00;-1.00;101666;1257;1004881;-47
2023/02/22 09:44:28;;;;;;;4.80;2.60;;;;;;;-128.00;-1.00;-1.00;101757;1254;1046330;-46
2023/02/22 09:46:56;;;;;;;6.50;3.60;;;;;;;-128.00;-1.00;-1.00;101246;1254;1046622;-49
2023/02/22 09:50:14;;;;;;;5.70;3.20;;;;;;;;;;101996;1292;600742;-49
2023/02/22 09:52:59;;;;;;;4.00;2.10;;;;;;;;;;104337;1266;58954;-48
2023/02/22 09:55:29;;;;;;;5.00;3.30;;;;;;;;;;104169;1269;58954;-48
2023/02/22 09:57:58;;;;;;;4.40;2.80;;;;;;;;;;104586;1263;60554;-49
2023/02/22 10:00:36;;;;;;;4.40;2.20;;;;;;;;;;104056;1269;58942;-46
2023/02/22 10:03:13;;;;;;;5.70;2.70;;;;;;;;;;103872;1260;135926;-49
2023/02/22 10:05:48;;;;;;;4.20;2.60;;;;;;;;;;105957;1260;59000;-48
2023/02/22 10:08:17;;;;;;;4.00;2.60;;;;;;;;;;104775;1254;59043;-49
2023/02/22 10:10:47;;;;;;;5.10;3.10;;;;;;;;;;105603;1253;59689;-49
2023/02/22 10:13:22;;;;;;;7.40;4.10;;;;;;;;;;105105;1253;58979;-49
2023/02/22 10:16:11;;;;;;;7.10;3.50;;;;;;;;;;104785;1254;60072;-50
2023/02/22 10:18:42;;;;;;;5.80;3.60;;;;;;;;;;104986;1253;59788;-51
2023/02/22 10:21:10;;;;;;;7.90;4.80;;;;;;;;;;105340;1254;61264;-48
2023/02/22 10:23:57;;;;;;;7.40;4.30;;;;;;;;;;106385;1254;61124;-46
2023/02/22 10:26:26;;;;;;;4.50;2.90;;;;;;;;;;105970;1256;59619;-48
2023/02/22 10:29:02;;;;;;;7.50;3.90;;;;;;;;;;105511;1255;60421;-49
2023/02/22 10:31:32;;;;;;;8.40;4.90;;;;;;;;;;105340;1255;59611;-48
2023/02/22 10:34:01;;;;;;;6.90;4.80;;;;;;;;;;105144;1253;59603;-48
2023/02/22 10:36:30;;;;;;;8.50;4.30;;;;;;;;;;105542;1256;59815;-47
2023/02/22 10:39:02;;;;;;;6.10;3.70;;;;;;;;;;106076;1256;60360;-48
2023/02/22 10:41:32;;;;;;;5.10;2.50;;;;;;;;;;104898;1253;61942;-48
2023/02/22 10:44:00;;;;;;;4.20;2.40;;;;;;;;;;105835;1258;60060;-45
2023/02/22 10:46:29;;;;;;;5.70;2.60;;;;;;;;;;106367;1253;58909;-49
2023/02/22 10:49:01;;;;;;;4.90;2.10;;;;;;;;;;105603;1254;61956;-49
2023/02/22 10:51:29;;;;;;;3.00;1.90;;;;;;;;;;105669;1256;59603;-49
2023/02/22 10:54:12;;;;;;;1.90;1.20;;;;;;;;;;105766;1257;62462;-48
2023/02/22 10:56:48;;;;;;;4.50;1.90;;;;;;;;;;105175;1259;59701;-50
2023/02/22 10:59:32;;;;;;;4.10;2.40;;;;;;;;;;105184;1258;59555;-46
2023/02/22 11:02:00;;;;;;;2.80;1.40;;;;;;;;;;105731;1258;61466;-46
2023/02/22 11:04:28;;;;;;;4.00;2.40;;;;;;;;;;105311;1254;59624;-48
2023/02/22 11:06:59;;;;;;;3.00;2.00;;;;;;;;;;105119;1260;60743;-46
2023/02/22 11:09:27;;;;;;;3.80;2.00;;;;;;;;;;105104;1258;61265;-45
2023/02/22 11:12:09;;;;;;;2.90;1.60;;;;;;;;;;105809;1256;59586;-46
2023/02/22 11:14:37;;;;;;;2.10;1.00;;;;;;;;;;105525;1253;61380;-48
2023/02/22 11:17:13;;;;;;;3.60;1.50;;;;;;;;;;105406;1250;59631;-50
2023/02/22 11:19:45;;;;;;;2.80;1.20;;;;;;;;;;105219;1250;60770;-49
2023/02/22 11:22:17;;;;;;;1.80;1.40;;;;;;;;;;105337;1250;59624;-48
2023/02/22 11:24:49;;;;;;;4.30;1.50;;;;;;;;;;105192;1250;59552;-47
2023/02/22 11:27:37;;;;;;;4.50;1.70;;;;;;;;;;105843;1251;61102;-47
2023/02/22 11:30:10;;;;;;;3.40;1.70;;;;;;;;;;106984;1254;59625;-47
2023/02/22 11:32:45;;;;;;;3.10;1.20;;;;;;;;;;106567;1256;60839;-46
2023/02/22 11:35:37;;;;;;;2.80;1.40;;;;;;;;;;105986;1254;59644;-48
2023/02/22 11:38:08;;;;;;;4.80;1.40;;;;;;;;;;105437;1250;59606;-46
2023/02/22 11:40:38;;;;;;;4.70;1.80;;;;;;;;;;105425;1250;61736;-47
2023/02/22 11:43:14;;;;;;;3.00;1.90;;;;;;;;;;105464;1250;59903;-47
2023/02/22 11:45:55;;;;;;;3.30;1.90;;;;;;;;;;105471;1251;59534;-47
2023/02/22 11:48:28;;;;;;;2.20;1.10;;;;;;;;;;105584;1256;59591;-48
2023/02/22 11:51:14;;;;;;;2.80;1.40;;;;;;;;;;105243;1256;59625;-48
2023/02/22 11:54:02;;;;;;;2.70;1.30;;;;;;;;;;105546;1254;61419;-47
2023/02/22 11:56:33;;;;;;;2.70;1.40;;;;;;;;;;105304;1254;59718;-48
2023/02/22 11:59:24;;;;;;;2.30;1.50;;;;;;;;;;109263;1250;61856;-51
2023/02/22 12:02:17;;;;;;;2.10;1.20;;;;;;;;;;108695;1250;59602;-46
2023/02/22 12:04:49;;;;;;;3.70;1.40;;;;;;;;;;105775;1250;59701;-50
2023/02/22 12:07:28;;;;;;;2.00;1.40;;;;;;;;;;105835;1255;60177;-50
2023/02/22 12:10:04;;;;;;;2.20;1.40;;;;;;;;;;105404;1256;60025;-49